Ruby Valley, NV (89833)

10:44 AM PDT on August 22, 2014 (GMT -0700)
KNVSPRIN1 | Change Station
CLOSE
Current Station
Personal Weather Station
Location: Spring Creek, NV
Elevation: 5760 ft
Nearby Weather Stations

Elev 5760 ft 40.74 °N, 115.53 °W | Updated 2 minutes ago

Overcast
Overcast
67.1 °F
Feels Like 67.1 °F
N
7.0
Wind Variable Wind from SW
Gusts 13.0 mph

Today
High -- | Low -- °F
--% Chance of Precip.
Yesterday
High -- | Low -- °F
Precip. -- in
5:59 AM 7:28 PM
Waning Crescent, 7% visible
Pressure 29.88 in
Visibility 10.0 miles
Clouds Few 3700 ft
Overcast 10000 ft
Dew Point 41 °F
Humidity 39%
Rainfall 0.00 in
Snow Depth 0 in , 0 in
UV 2 out of 12
Pollen 8.90 out of 12
Air Quality Not available.
Flu Activity Not available.
METAR KEKO 221656Z AUTO 00000KT 10SM FEW037 OVC100 18/08 A3002 RMK AO2 RAB41E51 SLP117 P0000 T01830083

More Conditions Fewer Conditions

Pressure 29.88 in
Visibility 10.0 miles
Clouds Few 3700 ft
Overcast 10000 ft
Dew Point 41 °F
Humidity 39%
Rainfall 0.00 in
Snow Depth 0 in , 0 in
UV 2 out of 12
Pollen 8.90 out of 12
Air Quality Not available.
Flu Activity Not available.
METAR KEKO 221656Z AUTO 00000KT 10SM FEW037 OVC100 18/08 A3002 RMK AO2 RAB41E51 SLP117 P0000 T01830083

More Conditions Fewer Conditions

10-Day Weather Forecast

Almanac

Astronomy

Aug. 22, 2014 Rise Set
Actual Time 5:59 AM PDT 7:28 PM PDT
Civil Twilight 5:30 AM PDT 7:57 PM PDT
Nautical Twilight 4:55 AM PDT 8:31 PM PDT
Astronomical Twilight 4:19 AM PDT 9:08 PM PDT
Moon 3:25 AM PDT 5:40 PM PDT
Length of Visible Light 14h 27m
Length of Day
13h 29m
Tomorrow will be 2m 28s shorter.
Waning Crescent, 7% of the Moon is Illuminated
Today
Waning Crescent
Aug 25
New
Sep 2
First Quarter
Sep 8
Full
Sep 15
Last Quarter

Today's Extremes

State Highs State Lows

Community

WunderPhotos

Upload Photos

1,746,206 photos uploaded!

WunderBlogs® & News

Nearby

Snow Depth

Station Depth Elevation
Green Mountain 0 in 8000 ft
Corral Canyon 0 in 8500 ft
Dorsey Basin 0 in 8100 ft
Taylor Canyon 1 in 6200 ft
Diamond Peak 1 in 8000 ft

Earthquake Activity

City Distance Mag. Time & Date
No recent earthquake activity has been reported nearby.
Minimum magnitude displayed is 2.5.

Coastal Water Temperatures

Place Temperature
No Stations Reporting

Nearby Weather Stations